sensor_id;sensor_type;location;lat;lon;timestamp;P1;durP1;ratioP1;P2;durP2;ratioP2
63606;SDS011;71992;52.478;-1.918;2023-09-18T00:00:33;12.73;;;6.63;;
63606;SDS011;71992;52.478;-1.918;2023-09-18T00:03:18;14.80;;;7.07;;
63606;SDS011;71992;52.478;-1.918;2023-09-18T00:05:52;14.45;;;6.90;;
63606;SDS011;71992;52.478;-1.918;2023-09-18T00:08:26;12.80;;;7.45;;
63606;SDS011;71992;52.478;-1.918;2023-09-18T00:10:58;13.63;;;7.38;;
63606;SDS011;71992;52.478;-1.918;2023-09-18T00:13:32;12.40;;;7.18;;
63606;SDS011;71992;52.478;-1.918;2023-09-18T00:16:05;14.30;;;7.10;;
63606;SDS011;71992;52.478;-1.918;2023-09-18T00:18:51;12.95;;;7.38;;
63606;SDS011;71992;52.478;-1.918;2023-09-18T00:21:37;17.35;;;8.38;;
63606;SDS011;71992;52.478;-1.918;2023-09-18T00:24:21;13.85;;;7.43;;
63606;SDS011;71992;52.478;-1.918;2023-09-18T00:27:05;15.68;;;7.35;;
63606;SDS011;71992;52.478;-1.918;2023-09-18T00:29:54;16.70;;;8.07;;
63606;SDS011;71992;52.478;-1.918;2023-09-18T00:32:37;17.05;;;7.63;;
63606;SDS011;71992;52.478;-1.918;2023-09-18T00:35:22;13.80;;;6.28;;
63606;SDS011;71992;52.478;-1.918;2023-09-18T00:38:06;12.77;;;7.03;;
63606;SDS011;71992;52.478;-1.918;2023-09-18T00:40:50;11.90;;;6.18;;
63606;SDS011;71992;52.478;-1.918;2023-09-18T00:43:33;13.52;;;6.78;;
63606;SDS011;71992;52.478;-1.918;2023-09-18T00:46:20;13.45;;;7.47;;
63606;SDS011;71992;52.478;-1.918;2023-09-18T00:49:05;13.45;;;6.18;;
63606;SDS011;71992;52.478;-1.918;2023-09-18T00:51:50;12.85;;;6.55;;
63606;SDS011;71992;52.478;-1.918;2023-09-18T00:54:34;12.05;;;6.43;;
63606;SDS011;71992;52.478;-1.918;2023-09-18T00:57:20;13.77;;;6.88;;
63606;SDS011;71992;52.478;-1.918;2023-09-18T01:00:05;12.40;;;5.85;;
63606;SDS011;71992;52.478;-1.918;2023-09-18T01:02:53;15.10;;;6.22;;
63606;SDS011;71992;52.478;-1.918;2023-09-18T01:05:37;12.68;;;6.13;;
63606;SDS011;71992;52.478;-1.918;2023-09-18T01:08:21;11.13;;;5.80;;
63606;SDS011;71992;52.478;-1.918;2023-09-18T01:11:06;12.00;;;5.82;;
63606;SDS011;71992;52.478;-1.918;2023-09-18T01:13:54;12.30;;;5.93;;
63606;SDS011;71992;52.478;-1.918;2023-09-18T01:16:34;10.15;;;5.57;;
63606;SDS011;71992;52.478;-1.918;2023-09-18T01:19:16;10.98;;;5.28;;
63606;SDS011;71992;52.478;-1.918;2023-09-18T01:21:46;10.73;;;5.32;;
63606;SDS011;71992;52.478;-1.918;2023-09-18T01:24:20;12.48;;;5.72;;
63606;SDS011;71992;52.478;-1.918;2023-09-18T01:26:51;10.02;;;5.65;;
63606;SDS011;71992;52.478;-1.918;2023-09-18T01:29:23;12.57;;;5.93;;
63606;SDS011;71992;52.478;-1.918;2023-09-18T01:31:55;10.50;;;5.53;;
63606;SDS011;71992;52.478;-1.918;2023-09-18T01:34:27;11.07;;;5.63;;
63606;SDS011;71992;52.478;-1.918;2023-09-18T01:37:01;11.85;;;5.85;;
63606;SDS011;71992;52.478;-1.918;2023-09-18T01:39:50;9.65;;;5.68;;
63606;SDS011;71992;52.478;-1.918;2023-09-18T01:42:35;11.93;;;5.82;;
63606;SDS011;71992;52.478;-1.918;2023-09-18T01:45:19;12.52;;;6.05;;
63606;SDS011;71992;52.478;-1.918;2023-09-18T01:48:04;11.05;;;6.03;;
63606;SDS011;71992;52.478;-1.918;2023-09-18T01:50:48;9.52;;;5.35;;
63606;SDS011;71992;52.478;-1.918;2023-09-18T01:53:32;9.57;;;4.72;;
63606;SDS011;71992;52.478;-1.918;2023-09-18T01:56:20;10.65;;;5.70;;
63606;SDS011;71992;52.478;-1.918;2023-09-18T01:58:51;11.80;;;5.75;;
63606;SDS011;71992;52.478;-1.918;2023-09-18T02:01:23;12.73;;;5.75;;
63606;SDS011;71992;52.478;-1.918;2023-09-18T02:03:57;12.75;;;5.57;;
63606;SDS011;71992;52.478;-1.918;2023-09-18T02:06:28;11.95;;;5.68;;
63606;SDS011;71992;52.478;-1.918;2023-09-18T02:08:59;9.43;;;4.97;;
63606;SDS011;71992;52.478;-1.918;2023-09-18T02:11:33;8.23;;;3.88;;
63606;SDS011;71992;52.478;-1.918;2023-09-18T02:14:05;7.20;;;3.65;;
63606;SDS011;71992;52.478;-1.918;2023-09-18T02:16:38;7.40;;;3.83;;
63606;SDS011;71992;52.478;-1.918;2023-09-18T02:19:13;7.90;;;4.30;;
63606;SDS011;71992;52.478;-1.918;2023-09-18T02:21:47;5.57;;;3.20;;
63606;SDS011;71992;52.478;-1.918;2023-09-18T02:24:18;5.50;;;3.38;;
63606;SDS011;71992;52.478;-1.918;2023-09-18T02:26:53;7.18;;;3.90;;
63606;SDS011;71992;52.478;-1.918;2023-09-18T02:29:24;8.23;;;4.13;;
63606;SDS011;71992;52.478;-1.918;2023-09-18T02:31:56;6.28;;;3.42;;
63606;SDS011;71992;52.478;-1.918;2023-09-18T02:34:29;9.05;;;3.92;;
63606;SDS011;71992;52.478;-1.918;2023-09-18T02:37:03;6.88;;;4.00;;
63606;SDS011;71992;52.478;-1.918;2023-09-18T02:39:35;6.53;;;3.67;;
63606;SDS011;71992;52.478;-1.918;2023-09-18T02:42:08;8.00;;;3.75;;
63606;SDS011;71992;52.478;-1.918;2023-09-18T02:44:41;6.32;;;3.65;;
63606;SDS011;71992;52.478;-1.918;2023-09-18T02:47:13;6.25;;;3.78;;
63606;SDS011;71992;52.478;-1.918;2023-09-18T02:49:45;5.50;;;3.33;;
63606;SDS011;71992;52.478;-1.918;2023-09-18T02:52:16;6.57;;;3.38;;
63606;SDS011;71992;52.478;-1.918;2023-09-18T02:54:49;5.15;;;3.25;;
63606;SDS011;71992;52.478;-1.918;2023-09-18T02:57:22;6.35;;;3.78;;
63606;SDS011;71992;52.478;-1.918;2023-09-18T02:59:54;8.43;;;3.75;;
63606;SDS011;71992;52.478;-1.918;2023-09-18T03:02:39;6.00;;;3.13;;
63606;SDS011;71992;52.478;-1.918;2023-09-18T03:05:23;4.22;;;2.50;;
63606;SDS011;71992;52.478;-1.918;2023-09-18T03:08:07;5.75;;;2.55;;
63606;SDS011;71992;52.478;-1.918;2023-09-18T03:10:52;5.45;;;2.92;;
63606;SDS011;71992;52.478;-1.918;2023-09-18T03:13:27;6.13;;;3.17;;
63606;SDS011;71992;52.478;-1.918;2023-09-18T03:15:58;4.63;;;2.67;;
63606;SDS011;71992;52.478;-1.918;2023-09-18T03:18:30;5.90;;;3.33;;
63606;SDS011;71992;52.478;-1.918;2023-09-18T03:21:01;7.10;;;3.25;;
63606;SDS011;71992;52.478;-1.918;2023-09-18T03:23:32;6.47;;;3.58;;
63606;SDS011;71992;52.478;-1.918;2023-09-18T03:26:05;5.65;;;3.53;;
63606;SDS011;71992;52.478;-1.918;2023-09-18T03:28:43;7.22;;;4.20;;
63606;SDS011;71992;52.478;-1.918;2023-09-18T03:31:15;7.53;;;3.75;;
63606;SDS011;71992;52.478;-1.918;2023-09-18T03:33:48;6.13;;;3.25;;
63606;SDS011;71992;52.478;-1.918;2023-09-18T03:36:20;6.60;;;4.30;;
63606;SDS011;71992;52.478;-1.918;2023-09-18T03:38:52;6.28;;;3.60;;
63606;SDS011;71992;52.478;-1.918;2023-09-18T03:41:24;8.13;;;3.83;;
63606;SDS011;71992;52.478;-1.918;2023-09-18T03:43:59;8.13;;;3.38;;
63606;SDS011;71992;52.478;-1.918;2023-09-18T03:46:35;5.75;;;3.38;;
63606;SDS011;71992;52.478;-1.918;2023-09-18T03:49:07;6.63;;;4.00;;
63606;SDS011;71992;52.478;-1.918;2023-09-18T03:51:39;8.25;;;3.17;;
63606;SDS011;71992;52.478;-1.918;2023-09-18T03:54:14;7.45;;;3.50;;
63606;SDS011;71992;52.478;-1.918;2023-09-18T03:56:45;8.30;;;4.05;;
63606;SDS011;71992;52.478;-1.918;2023-09-18T03:59:32;8.32;;;3.55;;
63606;SDS011;71992;52.478;-1.918;2023-09-18T04:02:04;6.05;;;3.63;;
63606;SDS011;71992;52.478;-1.918;2023-09-18T04:04:36;5.88;;;3.42;;
63606;SDS011;71992;52.478;-1.918;2023-09-18T04:07:08;5.47;;;3.58;;
63606;SDS011;71992;52.478;-1.918;2023-09-18T04:09:49;5.20;;;3.10;;
63606;SDS011;71992;52.478;-1.918;2023-09-18T04:12:25;9.15;;;3.88;;
63606;SDS011;71992;52.478;-1.918;2023-09-18T04:15:02;5.43;;;3.03;;
63606;SDS011;71992;52.478;-1.918;2023-09-18T04:17:43;5.95;;;3.80;;
63606;SDS011;71992;52.478;-1.918;2023-09-18T04:20:15;5.40;;;2.95;;
63606;SDS011;71992;52.478;-1.918;2023-09-18T04:25:48;6.07;;;3.63;;
63606;SDS011;71992;52.478;-1.918;2023-09-18T04:28:21;7.40;;;3.65;;
63606;SDS011;71992;52.478;-1.918;2023-09-18T04:30:56;7.18;;;4.10;;
63606;SDS011;71992;52.478;-1.918;2023-09-18T04:33:28;6.50;;;4.28;;
63606;SDS011;71992;52.478;-1.918;2023-09-18T04:35:59;7.15;;;4.07;;
63606;SDS011;71992;52.478;-1.918;2023-09-18T04:38:30;9.50;;;4.10;;
63606;SDS011;71992;52.478;-1.918;2023-09-18T04:41:01;10.95;;;4.43;;
63606;SDS011;71992;52.478;-1.918;2023-09-18T04:43:38;6.32;;;3.85;;
63606;SDS011;71992;52.478;-1.918;2023-09-18T04:46:24;10.23;;;4.47;;
63606;SDS011;71992;52.478;-1.918;2023-09-18T04:49:11;6.55;;;4.13;;
63606;SDS011;71992;52.478;-1.918;2023-09-18T04:51:55;6.45;;;3.83;;
63606;SDS011;71992;52.478;-1.918;2023-09-18T04:54:39;6.22;;;3.67;;
63606;SDS011;71992;52.478;-1.918;2023-09-18T04:57:23;9.48;;;3.90;;
63606;SDS011;71992;52.478;-1.918;2023-09-18T05:00:07;7.28;;;4.07;;
63606;SDS011;71992;52.478;-1.918;2023-09-18T05:02:56;6.40;;;3.40;;
63606;SDS011;71992;52.478;-1.918;2023-09-18T05:05:28;5.03;;;3.15;;
63606;SDS011;71992;52.478;-1.918;2023-09-18T05:08:00;6.75;;;3.90;;
63606;SDS011;71992;52.478;-1.918;2023-09-18T05:10:35;6.97;;;3.70;;
63606;SDS011;71992;52.478;-1.918;2023-09-18T05:13:06;6.03;;;4.10;;
63606;SDS011;71992;52.478;-1.918;2023-09-18T05:15:37;7.47;;;3.80;;
63606;SDS011;71992;52.478;-1.918;2023-09-18T05:18:10;5.88;;;3.28;;
63606;SDS011;71992;52.478;-1.918;2023-09-18T05:20:41;6.25;;;3.03;;
63606;SDS011;71992;52.478;-1.918;2023-09-18T05:23:13;4.78;;;2.95;;
63606;SDS011;71992;52.478;-1.918;2023-09-18T05:25:45;5.70;;;2.92;;
63606;SDS011;71992;52.478;-1.918;2023-09-18T05:28:16;6.70;;;3.30;;
63606;SDS011;71992;52.478;-1.918;2023-09-18T05:30:47;6.03;;;3.78;;
63606;SDS011;71992;52.478;-1.918;2023-09-18T05:33:21;7.63;;;3.20;;
63606;SDS011;71992;52.478;-1.918;2023-09-18T05:35:52;6.22;;;3.05;;
63606;SDS011;71992;52.478;-1.918;2023-09-18T05:38:23;8.55;;;3.50;;
63606;SDS011;71992;52.478;-1.918;2023-09-18T05:40:54;6.20;;;3.70;;
63606;SDS011;71992;52.478;-1.918;2023-09-18T05:43:26;8.35;;;4.28;;
63606;SDS011;71992;52.478;-1.918;2023-09-18T05:45:58;6.00;;;3.33;;
63606;SDS011;71992;52.478;-1.918;2023-09-18T05:48:31;7.05;;;3.80;;
63606;SDS011;71992;52.478;-1.918;2023-09-18T05:51:02;6.68;;;3.67;;
63606;SDS011;71992;52.478;-1.918;2023-09-18T05:53:33;7.57;;;3.45;;
63606;SDS011;71992;52.478;-1.918;2023-09-18T05:56:05;5.97;;;3.03;;
63606;SDS011;71992;52.478;-1.918;2023-09-18T05:58:37;5.75;;;3.25;;
63606;SDS011;71992;52.478;-1.918;2023-09-18T06:01:08;5.32;;;3.33;;
63606;SDS011;71992;52.478;-1.918;2023-09-18T06:03:42;6.28;;;3.80;;
63606;SDS011;71992;52.478;-1.918;2023-09-18T06:06:13;8.07;;;3.92;;
63606;SDS011;71992;52.478;-1.918;2023-09-18T06:08:44;8.00;;;4.10;;
63606;SDS011;71992;52.478;-1.918;2023-09-18T06:11:15;6.30;;;3.50;;
63606;SDS011;71992;52.478;-1.918;2023-09-18T06:13:46;5.82;;;3.78;;
63606;SDS011;71992;52.478;-1.918;2023-09-18T06:16:17;6.72;;;3.90;;
63606;SDS011;71992;52.478;-1.918;2023-09-18T06:18:50;6.72;;;3.72;;
63606;SDS011;71992;52.478;-1.918;2023-09-18T06:21:23;7.68;;;3.55;;
63606;SDS011;71992;52.478;-1.918;2023-09-18T06:23:58;6.28;;;3.50;;
63606;SDS011;71992;52.478;-1.918;2023-09-18T06:26:28;8.18;;;3.50;;
63606;SDS011;71992;52.478;-1.918;2023-09-18T06:28:59;7.60;;;3.17;;
63606;SDS011;71992;52.478;-1.918;2023-09-18T06:31:32;6.05;;;3.35;;
63606;SDS011;71992;52.478;-1.918;2023-09-18T06:34:05;7.07;;;3.63;;
63606;SDS011;71992;52.478;-1.918;2023-09-18T06:36:38;7.65;;;3.75;;
63606;SDS011;71992;52.478;-1.918;2023-09-18T06:39:09;6.85;;;3.72;;
63606;SDS011;71992;52.478;-1.918;2023-09-18T06:41:40;5.57;;;3.60;;
63606;SDS011;71992;52.478;-1.918;2023-09-18T06:44:18;4.57;;;3.15;;
63606;SDS011;71992;52.478;-1.918;2023-09-18T06:46:52;5.78;;;3.03;;
63606;SDS011;71992;52.478;-1.918;2023-09-18T06:49:26;5.63;;;3.13;;
63606;SDS011;71992;52.478;-1.918;2023-09-18T06:51:58;4.80;;;3.15;;
63606;SDS011;71992;52.478;-1.918;2023-09-18T06:54:29;5.15;;;3.00;;
63606;SDS011;71992;52.478;-1.918;2023-09-18T06:57:00;4.95;;;3.20;;
63606;SDS011;71992;52.478;-1.918;2023-09-18T06:59:30;6.30;;;3.05;;
63606;SDS011;71992;52.478;-1.918;2023-09-18T07:02:14;5.53;;;3.35;;
63606;SDS011;71992;52.478;-1.918;2023-09-18T07:05:00;5.05;;;3.13;;
63606;SDS011;71992;52.478;-1.918;2023-09-18T07:07:45;5.38;;;3.42;;
63606;SDS011;71992;52.478;-1.918;2023-09-18T07:10:29;4.55;;;2.83;;
63606;SDS011;71992;52.478;-1.918;2023-09-18T07:13:13;7.45;;;3.60;;
63606;SDS011;71992;52.478;-1.918;2023-09-18T07:15:57;5.65;;;3.47;;
63606;SDS011;71992;52.478;-1.918;2023-09-18T07:18:41;4.97;;;3.15;;
63606;SDS011;71992;52.478;-1.918;2023-09-18T07:21:28;4.93;;;3.60;;
63606;SDS011;71992;52.478;-1.918;2023-09-18T07:24:12;5.97;;;3.65;;
63606;SDS011;71992;52.478;-1.918;2023-09-18T07:26:57;5.53;;;3.03;;
63606;SDS011;71992;52.478;-1.918;2023-09-18T07:29:41;6.13;;;3.25;;
63606;SDS011;71992;52.478;-1.918;2023-09-18T07:32:25;6.35;;;3.10;;
63606;SDS011;71992;52.478;-1.918;2023-09-18T07:35:10;4.88;;;2.35;;
63606;SDS011;71992;52.478;-1.918;2023-09-18T07:37:56;4.25;;;2.78;;
63606;SDS011;71992;52.478;-1.918;2023-09-18T07:40:40;4.90;;;2.72;;
63606;SDS011;71992;52.478;-1.918;2023-09-18T07:43:24;3.75;;;2.63;;
63606;SDS011;71992;52.478;-1.918;2023-09-18T07:46:08;5.72;;;2.83;;
63606;SDS011;71992;52.478;-1.918;2023-09-18T07:48:52;4.38;;;2.20;;
63606;SDS011;71992;52.478;-1.918;2023-09-18T07:51:23;2.45;;;1.75;;
63606;SDS011;71992;52.478;-1.918;2023-09-18T07:53:56;3.55;;;2.17;;
63606;SDS011;71992;52.478;-1.918;2023-09-18T07:56:27;2.58;;;1.70;;
63606;SDS011;71992;52.478;-1.918;2023-09-18T07:59:01;4.07;;;2.00;;
63606;SDS011;71992;52.478;-1.918;2023-09-18T08:01:34;2.67;;;1.67;;
63606;SDS011;71992;52.478;-1.918;2023-09-18T08:04:09;2.90;;;1.65;;
63606;SDS011;71992;52.478;-1.918;2023-09-18T08:06:53;4.20;;;1.95;;
63606;SDS011;71992;52.478;-1.918;2023-09-18T08:09:40;3.92;;;2.05;;
63606;SDS011;71992;52.478;-1.918;2023-09-18T08:12:25;2.20;;;1.73;;
63606;SDS011;71992;52.478;-1.918;2023-09-18T08:15:09;3.92;;;1.80;;
63606;SDS011;71992;52.478;-1.918;2023-09-18T08:17:53;2.90;;;1.73;;
63606;SDS011;71992;52.478;-1.918;2023-09-18T08:20:39;2.40;;;1.70;;
63606;SDS011;71992;52.478;-1.918;2023-09-18T08:23:24;2.22;;;1.60;;
63606;SDS011;71992;52.478;-1.918;2023-09-18T08:26:10;1.95;;;1.27;;
63606;SDS011;71992;52.478;-1.918;2023-09-18T08:28:54;3.15;;;1.55;;
63606;SDS011;71992;52.478;-1.918;2023-09-18T08:31:38;3.90;;;1.45;;
63606;SDS011;71992;52.478;-1.918;2023-09-18T08:34:22;2.42;;;1.25;;
63606;SDS011;71992;52.478;-1.918;2023-09-18T08:37:07;2.75;;;1.60;;
63606;SDS011;71992;52.478;-1.918;2023-09-18T08:39:51;3.15;;;1.55;;
63606;SDS011;71992;52.478;-1.918;2023-09-18T08:42:38;2.55;;;1.20;;
63606;SDS011;71992;52.478;-1.918;2023-09-18T08:45:23;2.28;;;1.35;;
63606;SDS011;71992;52.478;-1.918;2023-09-18T08:48:11;2.95;;;1.20;;
63606;SDS011;71992;52.478;-1.918;2023-09-18T08:50:54;2.30;;;1.13;;
63606;SDS011;71992;52.478;-1.918;2023-09-18T08:53:38;2.40;;;1.10;;
63606;SDS011;71992;52.478;-1.918;2023-09-18T08:56:23;2.45;;;1.00;;
63606;SDS011;71992;52.478;-1.918;2023-09-18T08:59:11;2.30;;;1.10;;
63606;SDS011;71992;52.478;-1.918;2023-09-18T09:01:56;1.95;;;0.98;;
63606;SDS011;71992;52.478;-1.918;2023-09-18T09:04:40;2.22;;;0.85;;
63606;SDS011;71992;52.478;-1.918;2023-09-18T09:07:25;2.00;;;0.80;;
63606;SDS011;71992;52.478;-1.918;2023-09-18T09:10:10;1.88;;;1.23;;
63606;SDS011;71992;52.478;-1.918;2023-09-18T09:12:51;2.88;;;0.88;;
63606;SDS011;71992;52.478;-1.918;2023-09-18T09:15:32;2.45;;;1.00;;
63606;SDS011;71992;52.478;-1.918;2023-09-18T09:18:23;2.58;;;1.00;;
63606;SDS011;71992;52.478;-1.918;2023-09-18T09:21:01;2.28;;;0.90;;
63606;SDS011;71992;52.478;-1.918;2023-09-18T09:23:44;3.15;;;1.00;;
63606;SDS011;71992;52.478;-1.918;2023-09-18T09:26:19;2.92;;;1.10;;
63606;SDS011;71992;52.478;-1.918;2023-09-18T09:28:59;6.47;;;3.45;;
63606;SDS011;71992;52.478;-1.918;2023-09-18T09:31:49;2.67;;;1.65;;
63606;SDS011;71992;52.478;-1.918;2023-09-18T09:34:26;3.53;;;1.35;;
63606;SDS011;71992;52.478;-1.918;2023-09-18T09:36:59;3.28;;;1.30;;
63606;SDS011;71992;52.478;-1.918;2023-09-18T09:39:32;3.25;;;1.38;;
63606;SDS011;71992;52.478;-1.918;2023-09-18T09:42:04;2.30;;;1.13;;
63606;SDS011;71992;52.478;-1.918;2023-09-18T09:44:35;4.50;;;1.50;;
63606;SDS011;71992;52.478;-1.918;2023-09-18T09:47:08;3.58;;;1.15;;
63606;SDS011;71992;52.478;-1.918;2023-09-18T09:49:44;2.33;;;0.95;;
63606;SDS011;71992;52.478;-1.918;2023-09-18T09:52:17;3.33;;;1.10;;
63606;SDS011;71992;52.478;-1.918;2023-09-18T09:54:51;3.00;;;1.10;;
63606;SDS011;71992;52.478;-1.918;2023-09-18T09:57:24;2.53;;;1.17;;
63606;SDS011;71992;52.478;-1.918;2023-09-18T10:00:02;3.22;;;1.58;;
63606;SDS011;71992;52.478;-1.918;2023-09-18T10:03:06;5.43;;;1.95;;
63606;SDS011;71992;52.478;-1.918;2023-09-18T10:05:51;4.13;;;1.80;;
63606;SDS011;71992;52.478;-1.918;2023-09-18T10:08:23;5.43;;;1.58;;
63606;SDS011;71992;52.478;-1.918;2023-09-18T10:10:56;3.42;;;1.90;;
63606;SDS011;71992;52.478;-1.918;2023-09-18T10:13:31;2.92;;;1.20;;
63606;SDS011;71992;52.478;-1.918;2023-09-18T10:16:14;3.65;;;1.65;;
63606;SDS011;71992;52.478;-1.918;2023-09-18T10:18:54;3.50;;;1.15;;
63606;SDS011;71992;52.478;-1.918;2023-09-18T10:21:33;1.77;;;0.95;;
63606;SDS011;71992;52.478;-1.918;2023-09-18T10:24:22;2.67;;;1.15;;
63606;SDS011;71992;52.478;-1.918;2023-09-18T10:26:55;2.60;;;1.02;;
63606;SDS011;71992;52.478;-1.918;2023-09-18T10:29:28;1.20;;;0.88;;
63606;SDS011;71992;52.478;-1.918;2023-09-18T10:31:59;2.63;;;1.13;;
63606;SDS011;71992;52.478;-1.918;2023-09-18T10:34:37;3.00;;;1.48;;
63606;SDS011;71992;52.478;-1.918;2023-09-18T10:37:09;3.03;;;1.60;;
63606;SDS011;71992;52.478;-1.918;2023-09-18T10:39:42;4.00;;;1.35;;
63606;SDS011;71992;52.478;-1.918;2023-09-18T10:42:14;2.70;;;1.27;;
63606;SDS011;71992;52.478;-1.918;2023-09-18T10:44:47;4.35;;;1.00;;
63606;SDS011;71992;52.478;-1.918;2023-09-18T10:47:18;2.83;;;1.40;;
63606;SDS011;71992;52.478;-1.918;2023-09-18T10:49:52;2.83;;;1.05;;
63606;SDS011;71992;52.478;-1.918;2023-09-18T10:52:24;2.22;;;1.00;;
63606;SDS011;71992;52.478;-1.918;2023-09-18T10:54:55;2.28;;;1.30;;
63606;SDS011;71992;52.478;-1.918;2023-09-18T10:57:32;3.25;;;1.50;;
63606;SDS011;71992;52.478;-1.918;2023-09-18T11:00:25;3.05;;;1.70;;
63606;SDS011;71992;52.478;-1.918;2023-09-18T11:03:13;4.70;;;2.30;;
63606;SDS011;71992;52.478;-1.918;2023-09-18T11:05:48;3.35;;;1.75;;
63606;SDS011;71992;52.478;-1.918;2023-09-18T11:08:32;9.90;;;2.35;;
63606;SDS011;71992;52.478;-1.918;2023-09-18T11:11:06;2.42;;;1.40;;
63606;SDS011;71992;52.478;-1.918;2023-09-18T11:13:46;3.08;;;1.77;;
63606;SDS011;71992;52.478;-1.918;2023-09-18T11:16:34;3.08;;;1.95;;
63606;SDS011;71992;52.478;-1.918;2023-09-18T11:19:10;2.58;;;1.45;;
63606;SDS011;71992;52.478;-1.918;2023-09-18T11:21:45;3.33;;;1.35;;
63606;SDS011;71992;52.478;-1.918;2023-09-18T11:24:17;5.32;;;1.17;;
63606;SDS011;71992;52.478;-1.918;2023-09-18T11:26:50;1.52;;;0.95;;
63606;SDS011;71992;52.478;-1.918;2023-09-18T11:29:22;1.60;;;0.80;;
63606;SDS011;71992;52.478;-1.918;2023-09-18T11:34:29;1.35;;;1.00;;
63606;SDS011;71992;52.478;-1.918;2023-09-18T11:37:18;2.03;;;0.68;;
63606;SDS011;71992;52.478;-1.918;2023-09-18T11:39:50;4.43;;;0.90;;
63606;SDS011;71992;52.478;-1.918;2023-09-18T11:42:21;2.15;;;0.75;;
63606;SDS011;71992;52.478;-1.918;2023-09-18T11:44:55;1.70;;;0.70;;
63606;SDS011;71992;52.478;-1.918;2023-09-18T11:47:27;2.85;;;0.80;;
63606;SDS011;71992;52.478;-1.918;2023-09-18T11:49:59;1.45;;;0.82;;
63606;SDS011;71992;52.478;-1.918;2023-09-18T11:52:35;3.10;;;0.90;;
63606;SDS011;71992;52.478;-1.918;2023-09-18T11:55:07;3.22;;;1.30;;
63606;SDS011;71992;52.478;-1.918;2023-09-18T11:57:38;6.45;;;3.70;;
63606;SDS011;71992;52.478;-1.918;2023-09-18T12:00:18;7.57;;;4.15;;
63606;SDS011;71992;52.478;-1.918;2023-09-18T12:02:51;4.65;;;2.75;;
63606;SDS011;71992;52.478;-1.918;2023-09-18T12:05:22;4.78;;;2.05;;
63606;SDS011;71992;52.478;-1.918;2023-09-18T12:07:59;4.57;;;1.80;;
63606;SDS011;71992;52.478;-1.918;2023-09-18T12:10:32;3.83;;;1.75;;
63606;SDS011;71992;52.478;-1.918;2023-09-18T12:13:05;1.65;;;1.10;;
63606;SDS011;71992;52.478;-1.918;2023-09-18T12:15:39;3.30;;;1.65;;
63606;SDS011;71992;52.478;-1.918;2023-09-18T12:18:10;2.25;;;1.48;;
63606;SDS011;71992;52.478;-1.918;2023-09-18T12:20:45;3.15;;;2.05;;
63606;SDS011;71992;52.478;-1.918;2023-09-18T12:23:19;3.97;;;2.05;;
63606;SDS011;71992;52.478;-1.918;2023-09-18T12:25:56;5.20;;;1.52;;
63606;SDS011;71992;52.478;-1.918;2023-09-18T12:28:31;2.88;;;1.38;;
63606;SDS011;71992;52.478;-1.918;2023-09-18T12:31:03;3.00;;;1.15;;
63606;SDS011;71992;52.478;-1.918;2023-09-18T12:33:35;4.90;;;1.00;;
63606;SDS011;71992;52.478;-1.918;2023-09-18T12:36:07;2.45;;;1.08;;
63606;SDS011;71992;52.478;-1.918;2023-09-18T12:38:43;1.73;;;0.82;;
63606;SDS011;71992;52.478;-1.918;2023-09-18T12:41:14;2.22;;;0.82;;
63606;SDS011;71992;52.478;-1.918;2023-09-18T12:43:45;3.03;;;0.90;;
63606;SDS011;71992;52.478;-1.918;2023-09-18T12:46:16;1.95;;;0.98;;
63606;SDS011;71992;52.478;-1.918;2023-09-18T12:48:48;5.55;;;2.00;;
63606;SDS011;71992;52.478;-1.918;2023-09-18T12:51:28;6.20;;;2.95;;
63606;SDS011;71992;52.478;-1.918;2023-09-18T12:54:02;4.82;;;2.28;;
63606;SDS011;71992;52.478;-1.918;2023-09-18T12:56:39;6.80;;;2.90;;
63606;SDS011;71992;52.478;-1.918;2023-09-18T12:59:11;7.68;;;3.20;;
63606;SDS011;71992;52.478;-1.918;2023-09-18T13:01:47;5.03;;;2.75;;
63606;SDS011;71992;52.478;-1.918;2023-09-18T13:04:20;6.05;;;2.72;;
63606;SDS011;71992;52.478;-1.918;2023-09-18T13:07:02;3.80;;;1.60;;
63606;SDS011;71992;52.478;-1.918;2023-09-18T13:09:37;3.72;;;1.33;;
63606;SDS011;71992;52.478;-1.918;2023-09-18T13:12:09;4.05;;;1.50;;
63606;SDS011;71992;52.478;-1.918;2023-09-18T13:17:38;2.00;;;0.80;;
63606;SDS011;71992;52.478;-1.918;2023-09-18T13:20:12;1.65;;;0.82;;
63606;SDS011;71992;52.478;-1.918;2023-09-18T13:22:47;2.30;;;1.00;;
63606;SDS011;71992;52.478;-1.918;2023-09-18T13:25:22;1.38;;;0.80;;
63606;SDS011;71992;52.478;-1.918;2023-09-18T13:27:54;1.77;;;0.82;;
63606;SDS011;71992;52.478;-1.918;2023-09-18T13:30:25;1.95;;;0.73;;
63606;SDS011;71992;52.478;-1.918;2023-09-18T13:33:01;1.15;;;0.60;;
63606;SDS011;71992;52.478;-1.918;2023-09-18T13:35:33;1.13;;;0.50;;
63606;SDS011;71992;52.478;-1.918;2023-09-18T13:38:05;0.93;;;0.40;;
63606;SDS011;71992;52.478;-1.918;2023-09-18T13:40:42;1.25;;;0.63;;
63606;SDS011;71992;52.478;-1.918;2023-09-18T13:43:17;1.05;;;0.60;;
63606;SDS011;71992;52.478;-1.918;2023-09-18T13:45:49;1.67;;;0.40;;
63606;SDS011;71992;52.478;-1.918;2023-09-18T13:48:22;1.73;;;0.52;;
63606;SDS011;71992;52.478;-1.918;2023-09-18T13:50:53;2.30;;;1.30;;
63606;SDS011;71992;52.478;-1.918;2023-09-18T13:53:24;3.50;;;2.10;;
63606;SDS011;71992;52.478;-1.918;2023-09-18T13:55:58;2.42;;;1.30;;
63606;SDS011;71992;52.478;-1.918;2023-09-18T13:58:30;1.35;;;0.93;;
63606;SDS011;71992;52.478;-1.918;2023-09-18T14:01:01;1.90;;;0.80;;
63606;SDS011;71992;52.478;-1.918;2023-09-18T14:03:32;1.63;;;0.68;;
63606;SDS011;71992;52.478;-1.918;2023-09-18T14:06:03;1.40;;;0.68;;
63606;SDS011;71992;52.478;-1.918;2023-09-18T14:08:36;2.50;;;1.05;;
63606;SDS011;71992;52.478;-1.918;2023-09-18T14:11:10;1.45;;;0.82;;
63606;SDS011;71992;52.478;-1.918;2023-09-18T14:13:45;1.10;;;0.60;;
63606;SDS011;71992;52.478;-1.918;2023-09-18T14:16:16;2.00;;;0.80;;
63606;SDS011;71992;52.478;-1.918;2023-09-18T14:18:47;1.00;;;0.60;;
63606;SDS011;71992;52.478;-1.918;2023-09-18T14:21:18;2.08;;;0.65;;
63606;SDS011;71992;52.478;-1.918;2023-09-18T14:23:48;0.73;;;0.40;;
63606;SDS011;71992;52.478;-1.918;2023-09-18T14:26:22;2.70;;;0.60;;
63606;SDS011;71992;52.478;-1.918;2023-09-18T14:28:53;0.82;;;0.40;;
63606;SDS011;71992;52.478;-1.918;2023-09-18T14:31:24;2.33;;;0.47;;
63606;SDS011;71992;52.478;-1.918;2023-09-18T14:33:55;1.77;;;0.60;;
63606;SDS011;71992;52.478;-1.918;2023-09-18T14:36:26;1.77;;;0.50;;
63606;SDS011;71992;52.478;-1.918;2023-09-18T14:38:58;1.23;;;0.70;;
63606;SDS011;71992;52.478;-1.918;2023-09-18T14:41:32;1.33;;;0.47;;
63606;SDS011;71992;52.478;-1.918;2023-09-18T14:44:04;2.88;;;0.82;;
63606;SDS011;71992;52.478;-1.918;2023-09-18T14:46:39;0.65;;;0.32;;
63606;SDS011;71992;52.478;-1.918;2023-09-18T14:49:11;1.83;;;0.55;;
63606;SDS011;71992;52.478;-1.918;2023-09-18T14:51:41;0.85;;;0.45;;
63606;SDS011;71992;52.478;-1.918;2023-09-18T14:54:13;1.85;;;0.70;;
63606;SDS011;71992;52.478;-1.918;2023-09-18T14:56:46;3.15;;;0.80;;
63606;SDS011;71992;52.478;-1.918;2023-09-18T14:59:17;2.20;;;0.65;;
63606;SDS011;71992;52.478;-1.918;2023-09-18T15:01:47;4.15;;;0.70;;
63606;SDS011;71992;52.478;-1.918;2023-09-18T15:04:18;3.58;;;0.80;;
63606;SDS011;71992;52.478;-1.918;2023-09-18T15:06:50;2.05;;;0.77;;
63606;SDS011;71992;52.478;-1.918;2023-09-18T15:09:20;4.07;;;0.45;;
63606;SDS011;71992;52.478;-1.918;2023-09-18T15:11:54;4.15;;;0.82;;
63606;SDS011;71992;52.478;-1.918;2023-09-18T15:14:25;1.33;;;0.70;;
63606;SDS011;71992;52.478;-1.918;2023-09-18T15:16:56;2.17;;;0.75;;
63606;SDS011;71992;52.478;-1.918;2023-09-18T15:19:26;3.13;;;0.98;;
63606;SDS011;71992;52.478;-1.918;2023-09-18T15:21:57;4.30;;;0.77;;
63606;SDS011;71992;52.478;-1.918;2023-09-18T15:24:28;4.72;;;0.95;;
63606;SDS011;71992;52.478;-1.918;2023-09-18T15:27:03;4.57;;;1.15;;
63606;SDS011;71992;52.478;-1.918;2023-09-18T15:29:33;4.22;;;0.93;;
63606;SDS011;71992;52.478;-1.918;2023-09-18T15:32:04;3.47;;;1.10;;
63606;SDS011;71992;52.478;-1.918;2023-09-18T15:34:35;2.33;;;0.60;;